createdAt,value
2023-04-05T00:00:59.152Z,4.23
2023-04-05T00:04:02.989Z,4.27
2023-04-05T00:07:08.801Z,3.77
2023-04-05T00:10:11.773Z,4.50
2023-04-05T00:13:14.411Z,3.90
2023-04-05T00:16:19.676Z,3.83
2023-04-05T00:19:23.189Z,3.93
2023-04-05T00:22:26.782Z,4.13
2023-04-05T00:25:29.464Z,4.37
2023-04-05T00:28:32.117Z,3.90
2023-04-05T00:31:36.267Z,4.00
2023-04-05T00:34:38.959Z,3.80
2023-04-05T00:37:41.624Z,3.67
2023-04-05T00:40:44.443Z,4.00
2023-04-05T00:43:47.988Z,4.07
2023-04-05T00:46:52.329Z,4.80
2023-04-05T00:49:55.123Z,5.07
2023-04-05T00:52:58.311Z,6.60
2023-04-05T00:56:02.067Z,6.93
2023-04-05T00:59:04.746Z,6.07
2023-04-05T01:02:16.907Z,5.23
2023-04-05T01:05:28.932Z,5.40
2023-04-05T01:08:41.343Z,4.90
2023-04-05T01:11:46.198Z,4.80
2023-04-05T01:14:50.970Z,5.00
2023-04-05T01:17:57.519Z,5.10
2023-04-05T01:21:20.907Z,4.50
2023-04-05T01:24:38.634Z,4.17
2023-04-05T01:28:02.025Z,4.20
2023-04-05T01:31:10.947Z,4.70
2023-04-05T01:34:21.237Z,4.90
2023-04-05T01:37:28.224Z,4.20
2023-04-05T01:40:31.823Z,4.10
2023-04-05T01:43:34.515Z,4.60
2023-04-05T01:46:38.674Z,4.00
2023-04-05T01:49:41.577Z,4.30
2023-04-05T01:52:44.198Z,5.97
2023-04-05T01:55:47.396Z,5.23
2023-04-05T01:58:50.112Z,4.47
2023-04-05T02:01:54.802Z,4.33
2023-04-05T02:04:57.671Z,4.77
2023-04-05T02:08:00.488Z,4.17
2023-04-05T02:11:03.428Z,4.53
2023-04-05T02:14:06.199Z,4.30
2023-04-05T02:17:10.688Z,4.43
2023-04-05T02:20:14.974Z,4.70
2023-04-05T02:23:18.662Z,4.37
2023-04-05T02:26:21.510Z,4.20
2023-04-05T02:29:24.333Z,4.47
2023-04-05T02:32:28.358Z,4.43
2023-04-05T02:35:31.028Z,4.03
2023-04-05T02:38:34.093Z,4.70
2023-04-05T02:41:37.048Z,3.87
2023-04-05T02:44:40.000Z,4.47
2023-04-05T02:47:44.028Z,4.57
2023-04-05T02:50:49.501Z,4.17
2023-04-05T02:53:53.044Z,4.67
2023-04-05T02:56:58.223Z,4.17
2023-04-05T03:00:00.898Z,4.13
2023-04-05T03:03:05.021Z,4.20
2023-04-05T03:06:10.629Z,4.33
2023-04-05T03:09:14.421Z,4.33
2023-04-05T03:12:17.091Z,4.80
2023-04-05T03:15:19.831Z,5.10
2023-04-05T03:18:25.746Z,4.90
2023-04-05T03:21:29.922Z,4.07
2023-04-05T03:24:32.853Z,4.57
2023-04-05T03:27:35.721Z,4.13
2023-04-05T03:30:38.404Z,4.47
2023-04-05T03:33:42.477Z,3.83
2023-04-05T03:36:45.984Z,4.07
2023-04-05T03:39:48.690Z,4.70
2023-04-05T03:42:51.423Z,4.80
2023-04-05T03:45:54.222Z,4.67
2023-04-05T03:48:58.953Z,4.20
2023-04-05T03:52:02.062Z,4.30
2023-04-05T03:55:05.327Z,4.30
2023-04-05T03:58:08.220Z,4.60
2023-04-05T04:01:10.886Z,4.67
2023-04-05T04:04:15.303Z,4.90
2023-04-05T04:07:18.298Z,4.70
2023-04-05T04:10:21.009Z,4.60
2023-04-05T04:13:23.772Z,4.77
2023-04-05T04:16:28.734Z,4.80
2023-04-05T04:19:33.303Z,4.50
2023-04-05T04:22:38.852Z,5.03
2023-04-05T04:25:46.078Z,4.60
2023-04-05T04:28:48.829Z,5.33
2023-04-05T04:31:51.557Z,4.53
2023-04-05T04:34:55.911Z,4.57
2023-04-05T04:37:59.714Z,6.20
2023-04-05T04:41:07.679Z,6.47
2023-04-05T04:44:14.973Z,5.50
2023-04-05T04:47:17.700Z,5.00
2023-04-05T04:50:22.365Z,5.17
2023-04-05T04:53:25.125Z,4.93
2023-04-05T04:56:28.223Z,5.00
2023-04-05T04:59:31.180Z,4.67
2023-04-05T05:02:34.219Z,5.03
2023-04-05T05:05:44.285Z,5.00
2023-04-05T05:08:47.565Z,4.97
2023-04-05T05:11:50.378Z,4.63
2023-04-05T05:14:53.170Z,5.00
2023-04-05T05:17:56.208Z,4.40
2023-04-05T05:21:00.522Z,4.13
2023-04-05T05:24:03.532Z,4.50
2023-04-05T05:27:06.286Z,4.37
2023-04-05T05:30:10.064Z,3.97
2023-04-05T05:33:12.926Z,5.30
2023-04-05T05:36:17.516Z,5.10
2023-04-05T05:39:20.540Z,5.13
2023-04-05T05:42:23.778Z,5.23
2023-04-05T05:45:27.232Z,5.13
2023-04-05T05:48:29.908Z,6.33
2023-04-05T05:51:34.030Z,7.93
2023-04-05T05:54:36.841Z,9.23
2023-04-05T05:57:39.582Z,6.20
2023-04-05T06:00:42.865Z,8.03
2023-04-05T06:03:46.086Z,6.73
2023-04-05T06:06:50.173Z,5.70
2023-04-05T06:09:53.046Z,4.70
2023-04-05T06:12:55.720Z,5.90
2023-04-05T06:15:58.501Z,6.00
2023-04-05T06:19:01.943Z,6.03
2023-04-05T06:22:06.164Z,5.63
2023-04-05T06:25:10.165Z,5.43
2023-04-05T06:28:12.857Z,6.20
2023-04-05T06:31:17.628Z,6.20
2023-04-05T06:34:20.526Z,5.10
2023-04-05T06:37:24.609Z,6.40
2023-04-05T06:40:27.360Z,5.50
2023-04-05T06:43:30.457Z,4.80
2023-04-05T06:46:33.302Z,4.40
2023-04-05T06:49:36.127Z,4.57
2023-04-05T06:52:40.336Z,4.07
2023-04-05T06:55:43.152Z,7.00
2023-04-05T06:58:45.931Z,3.93
2023-04-05T07:01:48.638Z,5.73
2023-04-05T07:04:51.595Z,9.30
2023-04-05T07:07:55.923Z,7.13
2023-04-05T07:10:59.481Z,4.23
2023-04-05T07:14:02.330Z,4.20
2023-04-05T07:17:06.181Z,4.47
2023-04-05T07:20:09.667Z,4.50
2023-04-05T07:23:13.964Z,3.67
2023-04-05T07:26:16.604Z,3.50
2023-04-05T07:29:19.386Z,3.67
2023-04-05T07:32:22.697Z,3.30
2023-04-05T07:35:26.111Z,3.80
2023-04-05T07:38:30.881Z,3.47
2023-04-05T07:41:35.460Z,3.63
2023-04-05T07:44:38.208Z,3.50
2023-04-05T07:47:40.959Z,3.80
2023-04-05T07:50:47.822Z,3.30
2023-04-05T07:53:52.041Z,3.47
2023-04-05T07:56:57.523Z,3.37
2023-04-05T08:00:00.370Z,3.33
2023-04-05T08:03:04.576Z,3.40
2023-04-05T08:06:11.700Z,3.50
2023-04-05T08:09:15.952Z,3.30
2023-04-05T08:12:18.877Z,3.37
2023-04-05T08:15:21.832Z,3.40
2023-04-05T08:18:24.610Z,3.33
2023-04-05T08:21:27.707Z,2.80
2023-04-05T08:24:31.751Z,2.97
2023-04-05T08:27:34.414Z,3.07
2023-04-05T08:30:37.228Z,3.17
2023-04-05T08:33:40.024Z,2.87
2023-04-05T08:36:42.822Z,3.53
2023-04-05T08:39:46.813Z,3.20
2023-04-05T08:42:56.316Z,3.00
2023-04-05T08:46:00.699Z,3.10
2023-04-05T08:49:07.291Z,3.00
2023-04-05T08:52:10.041Z,2.63
2023-04-05T08:55:14.757Z,2.73
2023-04-05T08:58:18.090Z,3.03
2023-04-05T09:01:21.631Z,2.70
2023-04-05T09:04:27.161Z,2.80
2023-04-05T09:07:31.249Z,2.70
2023-04-05T09:10:35.734Z,2.90
2023-04-05T09:13:38.453Z,3.97
2023-04-05T09:16:42.847Z,2.80
2023-04-05T09:19:45.598Z,2.60
2023-04-05T09:22:49.321Z,2.57
2023-04-05T09:25:53.484Z,3.40
2023-04-05T09:28:56.166Z,2.90
2023-04-05T09:31:58.996Z,2.90
2023-04-05T09:35:03.993Z,3.00
2023-04-05T09:38:06.735Z,3.93
2023-04-05T09:41:11.600Z,2.67
2023-04-05T09:44:14.523Z,3.60
2023-04-05T09:47:18.329Z,3.77
2023-04-05T09:50:21.760Z,3.30
2023-04-05T09:53:24.563Z,2.80
2023-04-05T09:56:30.531Z,3.23
2023-04-05T09:59:35.436Z,3.10
2023-04-05T10:02:39.863Z,2.97
2023-04-05T10:05:42.957Z,2.97
2023-04-05T10:08:48.108Z,3.50
2023-04-05T10:11:52.712Z,3.50
2023-04-05T10:14:57.140Z,3.63
2023-04-05T10:18:05.009Z,3.43
2023-04-05T10:21:12.126Z,3.60
2023-04-05T10:24:24.680Z,3.67
2023-04-05T10:27:34.048Z,3.23
2023-04-05T10:30:40.157Z,3.70
2023-04-05T10:33:47.621Z,3.50
2023-04-05T10:36:52.212Z,3.57
2023-04-05T10:39:57.890Z,3.30
2023-04-05T10:43:02.240Z,2.90
2023-04-05T10:46:07.543Z,3.00
2023-04-05T10:49:17.426Z,3.23
2023-04-05T10:52:22.759Z,3.30
2023-04-05T10:55:27.137Z,3.23
2023-04-05T10:58:33.100Z,3.00
2023-04-05T11:01:36.501Z,3.00
2023-04-05T11:04:41.913Z,3.00
2023-04-05T11:07:46.559Z,3.07
2023-04-05T11:10:53.427Z,3.60
2023-04-05T11:13:58.869Z,5.27
2023-04-05T11:17:01.684Z,3.00
2023-04-05T11:20:05.895Z,3.23
2023-04-05T11:23:08.729Z,3.43
2023-04-05T11:26:11.592Z,3.00
2023-04-05T11:29:16.729Z,3.00
2023-04-05T11:32:19.436Z,3.33
2023-04-05T11:35:24.030Z,3.20
2023-04-05T11:38:27.572Z,3.57
2023-04-05T11:41:34.530Z,3.23
2023-04-05T11:44:47.991Z,3.00
2023-04-05T11:47:51.035Z,3.60
2023-04-05T11:50:56.278Z,3.60
2023-04-05T11:53:59.036Z,3.30
2023-04-05T11:57:03.553Z,2.80
2023-04-05T12:00:09.719Z,3.23
2023-04-05T12:03:13.970Z,2.93
2023-04-05T12:06:16.713Z,2.67
2023-04-05T12:09:19.611Z,3.17
2023-04-05T12:12:22.453Z,3.17
2023-04-05T12:15:26.766Z,4.80
2023-04-05T12:18:31.579Z,3.43
2023-04-05T12:21:34.511Z,3.77
2023-04-05T12:24:37.669Z,3.20
2023-04-05T12:27:40.868Z,3.40
2023-04-05T12:30:51.994Z,3.10
2023-04-05T12:34:00.372Z,3.60
2023-04-05T12:37:04.591Z,3.23
2023-04-05T12:40:08.533Z,3.10
2023-04-05T12:43:11.667Z,3.10
2023-04-05T12:46:19.633Z,3.50
2023-04-05T12:49:22.369Z,3.30
2023-04-05T12:52:28.160Z,3.30
2023-04-05T12:55:31.443Z,3.70
2023-04-05T12:58:36.188Z,3.40
2023-04-05T13:01:40.811Z,2.90
2023-04-05T13:04:43.704Z,2.60
2023-04-05T13:07:47.055Z,3.20
2023-04-05T13:10:50.705Z,3.30
2023-04-05T13:13:53.516Z,3.00
2023-04-05T13:16:57.514Z,2.83
2023-04-05T13:20:00.560Z,3.17
2023-04-05T13:23:03.535Z,3.00
2023-04-05T13:26:07.397Z,3.10
2023-04-05T13:29:10.036Z,3.00
2023-04-05T13:32:14.050Z,2.70
2023-04-05T13:35:16.774Z,2.60
2023-04-05T13:38:19.659Z,3.00
2023-04-05T13:41:22.475Z,2.70
2023-04-05T13:44:25.496Z,3.27
2023-04-05T13:47:29.623Z,2.80
2023-04-05T13:50:32.471Z,10.43
2023-04-05T13:53:35.532Z,4.10
2023-04-05T13:56:38.550Z,3.90
2023-04-05T13:59:41.478Z,3.17
2023-04-05T14:02:45.902Z,3.20
2023-04-05T14:05:51.256Z,3.30
2023-04-05T14:08:55.779Z,3.23
2023-04-05T14:11:59.154Z,3.37
2023-04-05T14:15:01.987Z,3.17
2023-04-05T14:18:06.278Z,3.47
2023-04-05T14:21:09.062Z,3.70
2023-04-05T14:24:13.674Z,3.50
2023-04-05T14:27:16.434Z,3.57
2023-04-05T14:30:20.504Z,3.63
2023-04-05T14:33:25.107Z,3.47
2023-04-05T14:36:28.187Z,3.70
2023-04-05T14:39:30.939Z,3.20
2023-04-05T14:42:47.772Z,3.20
2023-04-05T14:45:52.331Z,3.50
2023-04-05T14:48:56.487Z,3.20
2023-04-05T14:51:59.221Z,2.70
2023-04-05T14:55:02.058Z,3.10
2023-04-05T14:58:04.706Z,3.40
2023-04-05T15:01:10.061Z,3.37
2023-04-05T15:04:14.383Z,3.43
2023-04-05T15:07:17.171Z,3.40
2023-04-05T15:10:20.370Z,3.40
2023-04-05T15:13:26.198Z,3.40
2023-04-05T15:16:30.567Z,3.27
2023-04-05T15:19:36.268Z,3.43
2023-04-05T15:22:40.901Z,3.20
2023-04-05T15:25:43.965Z,2.70
2023-04-05T15:28:46.700Z,3.40
2023-04-05T15:31:49.502Z,4.67
2023-04-05T15:34:53.606Z,3.30
2023-04-05T15:37:56.293Z,3.17
2023-04-05T15:40:59.131Z,3.20
2023-04-05T15:44:02.463Z,3.10
2023-04-05T15:47:06.053Z,3.73
2023-04-05T15:50:10.437Z,3.30
2023-04-05T15:53:13.241Z,3.17
2023-04-05T15:56:16.219Z,6.77
2023-04-05T15:59:19.235Z,3.40
2023-04-05T16:02:22.526Z,3.03
2023-04-05T16:05:27.054Z,3.57
2023-04-05T16:08:29.916Z,3.97
2023-04-05T16:11:34.085Z,4.40
2023-04-05T16:14:37.304Z,4.20
2023-04-05T16:17:40.119Z,3.70
2023-04-05T16:20:44.531Z,3.37
2023-04-05T16:23:47.641Z,3.70
2023-04-05T16:26:50.398Z,3.50
2023-04-05T16:29:53.954Z,2.60
2023-04-05T16:32:56.854Z,2.70
2023-04-05T16:36:03.557Z,3.10
2023-04-05T16:39:07.614Z,3.30
2023-04-05T16:42:10.747Z,3.70
2023-04-05T16:45:13.896Z,4.10
2023-04-05T16:48:17.053Z,5.10
2023-04-05T16:51:22.042Z,4.20
2023-04-05T16:54:25.036Z,4.27
2023-04-05T16:57:28.019Z,4.00
2023-04-05T17:00:31.301Z,4.50
2023-04-05T17:03:34.335Z,4.33
2023-04-05T17:06:38.652Z,4.20
2023-04-05T17:09:41.598Z,4.63
2023-04-05T17:12:45.711Z,4.80
2023-04-05T17:15:49.209Z,5.77
2023-04-05T17:18:52.473Z,4.30
2023-04-05T17:21:56.721Z,4.77
2023-04-05T17:24:59.955Z,4.03
2023-04-05T17:28:03.250Z,4.20
2023-04-05T17:31:06.267Z,4.27
2023-04-05T17:34:13.158Z,7.10
2023-04-05T17:37:17.669Z,4.00
2023-04-05T17:40:20.767Z,4.90
2023-04-05T17:43:24.016Z,5.67
2023-04-05T17:46:40.204Z,4.33
2023-04-05T17:49:46.100Z,4.27
2023-04-05T17:52:50.709Z,8.87
2023-04-05T17:55:56.562Z,5.67
2023-04-05T17:58:59.384Z,4.47
2023-04-05T18:02:03.239Z,3.37
2023-04-05T18:08:38.933Z,2.80
2023-04-05T18:11:41.840Z,3.03
2023-04-05T18:14:44.928Z,2.93
2023-04-05T18:17:47.881Z,2.80
2023-04-05T18:20:51.476Z,10.03
2023-04-05T18:23:56.733Z,5.10
2023-04-05T18:26:59.841Z,4.40
2023-04-05T18:30:02.530Z,3.37
2023-04-05T18:33:05.361Z,3.40
2023-04-05T18:36:08.832Z,2.90
2023-04-05T18:39:13.174Z,3.60
2023-04-05T18:42:16.284Z,4.27
2023-04-05T18:45:19.234Z,4.77
2023-04-05T18:48:24.246Z,4.40
2023-04-05T18:51:27.254Z,4.53
2023-04-05T18:54:31.369Z,5.00
2023-04-05T18:57:34.857Z,5.73
2023-04-05T19:00:37.657Z,5.50
2023-04-05T19:03:40.507Z,6.20
2023-04-05T19:06:43.169Z,6.10
2023-04-05T19:09:47.420Z,6.00
2023-04-05T19:12:50.091Z,5.73
2023-04-05T19:15:53.258Z,6.57
2023-04-05T19:18:55.908Z,5.50
2023-04-05T19:21:58.751Z,5.60
2023-04-05T19:25:02.983Z,4.60
2023-04-05T19:28:06.269Z,4.83
2023-04-05T19:31:10.753Z,4.80
2023-04-05T19:34:13.609Z,5.00
2023-04-05T19:37:16.360Z,5.23
2023-04-05T19:40:23.545Z,5.20
2023-04-05T19:43:26.412Z,6.03
2023-04-05T19:46:30.910Z,6.13
2023-04-05T19:49:39.207Z,5.47
2023-04-05T19:52:47.962Z,5.43
2023-04-05T19:55:52.614Z,5.00
2023-04-05T19:58:59.343Z,4.90
2023-04-05T20:02:04.053Z,4.17
2023-04-05T20:05:14.434Z,4.53
2023-04-05T20:08:17.224Z,5.63
2023-04-05T20:11:22.628Z,4.80
2023-04-05T20:14:29.088Z,5.80
2023-04-05T20:17:32.005Z,5.47
2023-04-05T20:20:35.408Z,6.17
2023-04-05T20:23:40.226Z,5.27
2023-04-05T20:26:44.852Z,5.17
2023-04-05T20:29:47.675Z,5.47
2023-04-05T20:32:50.443Z,7.23
2023-04-05T20:35:53.288Z,7.47
2023-04-05T20:38:56.100Z,6.90
2023-04-05T20:42:00.589Z,6.60
2023-04-05T20:45:03.706Z,6.53
2023-04-05T20:48:06.950Z,5.80
2023-04-05T20:51:10.981Z,5.60
2023-04-05T20:54:14.177Z,5.50
2023-04-05T20:57:18.663Z,5.70
2023-04-05T21:00:21.910Z,6.30
2023-04-05T21:03:24.875Z,6.77
2023-04-05T21:06:27.730Z,7.20
2023-04-05T21:09:30.959Z,6.33
2023-04-05T21:12:35.816Z,6.10
2023-04-05T21:15:38.711Z,6.47
2023-04-05T21:18:41.530Z,6.10
2023-04-05T21:21:44.438Z,6.17
2023-04-05T21:24:47.302Z,7.33
2023-04-05T21:27:51.819Z,5.67
2023-04-05T21:30:55.126Z,5.90
2023-04-05T21:33:57.882Z,7.27
2023-04-05T21:37:00.672Z,8.70
2023-04-05T21:40:04.367Z,7.20
2023-04-05T21:43:11.964Z,6.70
2023-04-05T21:46:14.779Z,5.87
2023-04-05T21:49:17.625Z,6.40
2023-04-05T21:52:20.506Z,5.77
2023-04-05T21:55:23.373Z,5.53
2023-04-05T21:58:27.468Z,5.20
2023-04-05T22:01:30.326Z,5.37
2023-04-05T22:04:33.197Z,5.33
2023-04-05T22:07:36.633Z,5.33
2023-04-05T22:10:39.567Z,5.50
2023-04-05T22:13:45.433Z,5.40
2023-04-05T22:16:48.398Z,5.50
2023-04-05T22:19:51.217Z,5.33
2023-04-05T22:22:54.100Z,5.87
2023-04-05T22:25:57.037Z,5.90
2023-04-05T22:29:02.523Z,6.37
2023-04-05T22:32:06.160Z,6.73
2023-04-05T22:35:09.406Z,7.07
2023-04-05T22:38:12.405Z,6.80
2023-04-05T22:41:15.214Z,5.97
2023-04-05T22:44:19.392Z,5.43
2023-04-05T22:47:22.095Z,6.10
2023-04-05T22:50:24.920Z,5.77
2023-04-05T22:53:28.380Z,6.30
2023-04-05T22:56:32.055Z,6.03
2023-04-05T22:59:36.346Z,6.03
2023-04-05T23:02:42.312Z,5.60
2023-04-05T23:05:45.037Z,6.17
2023-04-05T23:08:48.056Z,5.67
2023-04-05T23:11:51.113Z,5.97
2023-04-05T23:14:56.479Z,5.60
2023-04-05T23:17:59.199Z,5.47
2023-04-05T23:21:02.202Z,5.30
2023-04-05T23:24:06.272Z,5.87
2023-04-05T23:27:08.956Z,5.90
2023-04-05T23:30:14.031Z,5.30
2023-04-05T23:33:17.218Z,6.13
2023-04-05T23:36:22.166Z,6.20
2023-04-05T23:39:25.198Z,5.97
2023-04-05T23:42:27.895Z,6.00
2023-04-05T23:45:32.587Z,5.93
2023-04-05T23:48:35.302Z,6.07
2023-04-05T23:51:37.949Z,5.97
2023-04-05T23:54:40.660Z,5.73
2023-04-05T23:57:43.439Z,5.53
